sensor_id;sensor_type;location;lat;lon;timestamp;P1;durP1;ratioP1;P2;durP2;ratioP2
8293;SDS011;4185;41.506;24.938;2022-08-01T00:01:48;11.87;;;9.93;;
8293;SDS011;4185;41.506;24.938;2022-08-01T00:04:15;13.87;;;9.97;;
8293;SDS011;4185;41.506;24.938;2022-08-01T00:06:43;12.43;;;10.00;;
8293;SDS011;4185;41.506;24.938;2022-08-01T00:09:10;12.63;;;10.53;;
8293;SDS011;4185;41.506;24.938;2022-08-01T00:11:37;13.37;;;10.57;;
8293;SDS011;4185;41.506;24.938;2022-08-01T00:14:04;12.73;;;10.30;;
8293;SDS011;4185;41.506;24.938;2022-08-01T00:16:31;13.47;;;10.37;;
8293;SDS011;4185;41.506;24.938;2022-08-01T00:18:58;13.47;;;10.17;;
8293;SDS011;4185;41.506;24.938;2022-08-01T00:21:24;14.77;;;9.97;;
8293;SDS011;4185;41.506;24.938;2022-08-01T00:23:53;15.17;;;9.60;;
8293;SDS011;4185;41.506;24.938;2022-08-01T00:26:20;11.67;;;9.90;;
8293;SDS011;4185;41.506;24.938;2022-08-01T00:28:46;11.10;;;8.87;;
8293;SDS011;4185;41.506;24.938;2022-08-01T00:31:13;10.67;;;9.27;;
8293;SDS011;4185;41.506;24.938;2022-08-01T00:33:40;12.47;;;9.70;;
8293;SDS011;4185;41.506;24.938;2022-08-01T00:36:07;12.97;;;9.60;;
8293;SDS011;4185;41.506;24.938;2022-08-01T00:38:34;13.03;;;10.03;;
8293;SDS011;4185;41.506;24.938;2022-08-01T00:41:02;13.33;;;9.57;;
8293;SDS011;4185;41.506;24.938;2022-08-01T00:43:29;13.37;;;10.63;;
8293;SDS011;4185;41.506;24.938;2022-08-01T00:45:56;13.43;;;9.73;;
8293;SDS011;4185;41.506;24.938;2022-08-01T00:48:22;12.80;;;9.47;;
8293;SDS011;4185;41.506;24.938;2022-08-01T00:50:49;11.77;;;9.20;;
8293;SDS011;4185;41.506;24.938;2022-08-01T00:53:16;16.03;;;9.50;;
8293;SDS011;4185;41.506;24.938;2022-08-01T00:55:43;13.33;;;9.73;;
8293;SDS011;4185;41.506;24.938;2022-08-01T00:58:11;11.10;;;8.93;;
8293;SDS011;4185;41.506;24.938;2022-08-01T01:00:38;10.77;;;9.63;;
8293;SDS011;4185;41.506;24.938;2022-08-01T01:03:05;10.87;;;9.40;;
8293;SDS011;4185;41.506;24.938;2022-08-01T01:05:33;13.27;;;9.77;;
8293;SDS011;4185;41.506;24.938;2022-08-01T01:08:07;11.93;;;9.03;;
8293;SDS011;4185;41.506;24.938;2022-08-01T01:10:50;12.80;;;10.60;;
8293;SDS011;4185;41.506;24.938;2022-08-01T01:13:23;12.83;;;9.83;;
8293;SDS011;4185;41.506;24.938;2022-08-01T01:15:58;11.87;;;9.37;;
8293;SDS011;4185;41.506;24.938;2022-08-01T01:18:27;15.30;;;9.60;;
8293;SDS011;4185;41.506;24.938;2022-08-01T01:21:00;11.60;;;9.53;;
8293;SDS011;4185;41.506;24.938;2022-08-01T01:23:45;12.70;;;9.00;;
8293;SDS011;4185;41.506;24.938;2022-08-01T01:26:23;11.97;;;9.17;;
8293;SDS011;4185;41.506;24.938;2022-08-01T01:29:03;11.37;;;9.07;;
8293;SDS011;4185;41.506;24.938;2022-08-01T01:31:33;14.93;;;9.97;;
8293;SDS011;4185;41.506;24.938;2022-08-01T01:34:07;12.10;;;10.00;;
8293;SDS011;4185;41.506;24.938;2022-08-01T01:36:37;11.43;;;9.87;;
8293;SDS011;4185;41.506;24.938;2022-08-01T01:39:05;12.93;;;11.23;;
8293;SDS011;4185;41.506;24.938;2022-08-01T01:41:33;14.13;;;10.50;;
8293;SDS011;4185;41.506;24.938;2022-08-01T01:44:04;14.87;;;10.70;;
8293;SDS011;4185;41.506;24.938;2022-08-01T01:46:32;10.90;;;9.73;;
8293;SDS011;4185;41.506;24.938;2022-08-01T01:48:59;11.57;;;9.87;;
8293;SDS011;4185;41.506;24.938;2022-08-01T01:51:27;13.03;;;10.10;;
8293;SDS011;4185;41.506;24.938;2022-08-01T01:53:56;10.67;;;9.50;;
8293;SDS011;4185;41.506;24.938;2022-08-01T01:56:24;13.70;;;9.80;;
8293;SDS011;4185;41.506;24.938;2022-08-01T01:58:54;16.17;;;10.10;;
8293;SDS011;4185;41.506;24.938;2022-08-01T02:01:27;12.60;;;10.20;;
8293;SDS011;4185;41.506;24.938;2022-08-01T02:03:55;11.87;;;9.40;;
8293;SDS011;4185;41.506;24.938;2022-08-01T02:06:23;10.70;;;9.37;;
8293;SDS011;4185;41.506;24.938;2022-08-01T02:08:51;13.87;;;9.83;;
8293;SDS011;4185;41.506;24.938;2022-08-01T02:11:20;11.53;;;9.10;;
8293;SDS011;4185;41.506;24.938;2022-08-01T02:13:49;18.27;;;9.33;;
8293;SDS011;4185;41.506;24.938;2022-08-01T02:16:20;10.97;;;9.10;;
8293;SDS011;4185;41.506;24.938;2022-08-01T02:18:52;12.47;;;9.57;;
8293;SDS011;4185;41.506;24.938;2022-08-01T02:21:20;13.03;;;10.47;;
8293;SDS011;4185;41.506;24.938;2022-08-01T02:23:53;12.37;;;9.93;;
8293;SDS011;4185;41.506;24.938;2022-08-01T02:26:26;12.07;;;9.83;;
8293;SDS011;4185;41.506;24.938;2022-08-01T02:28:55;12.27;;;9.63;;
8293;SDS011;4185;41.506;24.938;2022-08-01T02:31:25;12.17;;;9.67;;
8293;SDS011;4185;41.506;24.938;2022-08-01T02:34:00;12.53;;;10.37;;
8293;SDS011;4185;41.506;24.938;2022-08-01T02:36:31;12.90;;;9.63;;
8293;SDS011;4185;41.506;24.938;2022-08-01T02:39:00;12.90;;;9.17;;
8293;SDS011;4185;41.506;24.938;2022-08-01T02:41:30;10.83;;;8.93;;
8293;SDS011;4185;41.506;24.938;2022-08-01T02:44:00;12.63;;;9.17;;
8293;SDS011;4185;41.506;24.938;2022-08-01T02:46:31;13.03;;;9.13;;
8293;SDS011;4185;41.506;24.938;2022-08-01T02:49:03;13.17;;;9.83;;
8293;SDS011;4185;41.506;24.938;2022-08-01T02:51:31;11.37;;;9.43;;
8293;SDS011;4185;41.506;24.938;2022-08-01T02:54:00;13.07;;;9.27;;
8293;SDS011;4185;41.506;24.938;2022-08-01T02:56:28;14.07;;;10.13;;
8293;SDS011;4185;41.506;24.938;2022-08-01T02:59:01;14.97;;;10.47;;
8293;SDS011;4185;41.506;24.938;2022-08-01T03:01:31;11.00;;;9.63;;
8293;SDS011;4185;41.506;24.938;2022-08-01T03:04:00;12.23;;;9.33;;
8293;SDS011;4185;41.506;24.938;2022-08-01T03:06:28;12.97;;;9.77;;
8293;SDS011;4185;41.506;24.938;2022-08-01T03:08:56;13.43;;;9.67;;
8293;SDS011;4185;41.506;24.938;2022-08-01T03:11:25;11.53;;;9.30;;
8293;SDS011;4185;41.506;24.938;2022-08-01T03:13:53;12.27;;;9.93;;
8293;SDS011;4185;41.506;24.938;2022-08-01T03:16:22;10.40;;;9.30;;
8293;SDS011;4185;41.506;24.938;2022-08-01T03:18:52;12.33;;;9.27;;
8293;SDS011;4185;41.506;24.938;2022-08-01T03:21:19;11.23;;;9.07;;
8293;SDS011;4185;41.506;24.938;2022-08-01T03:23:49;10.40;;;9.27;;
8293;SDS011;4185;41.506;24.938;2022-08-01T03:26:22;10.70;;;9.37;;
8293;SDS011;4185;41.506;24.938;2022-08-01T03:28:54;10.70;;;9.60;;
8293;SDS011;4185;41.506;24.938;2022-08-01T03:31:23;12.77;;;9.90;;
8293;SDS011;4185;41.506;24.938;2022-08-01T03:33:51;12.90;;;10.20;;
8293;SDS011;4185;41.506;24.938;2022-08-01T03:36:19;12.33;;;10.23;;
8293;SDS011;4185;41.506;24.938;2022-08-01T03:38:51;12.20;;;9.70;;
8293;SDS011;4185;41.506;24.938;2022-08-01T03:41:21;12.23;;;9.53;;
8293;SDS011;4185;41.506;24.938;2022-08-01T03:43:52;11.30;;;10.10;;
8293;SDS011;4185;41.506;24.938;2022-08-01T03:46:25;11.73;;;9.90;;
8293;SDS011;4185;41.506;24.938;2022-08-01T03:48:55;10.40;;;9.10;;
8293;SDS011;4185;41.506;24.938;2022-08-01T03:51:27;11.73;;;10.53;;
8293;SDS011;4185;41.506;24.938;2022-08-01T03:53:58;15.90;;;12.07;;
8293;SDS011;4185;41.506;24.938;2022-08-01T03:56:26;12.33;;;10.27;;
8293;SDS011;4185;41.506;24.938;2022-08-01T03:58:56;12.27;;;10.77;;
8293;SDS011;4185;41.506;24.938;2022-08-01T04:01:24;15.00;;;11.30;;
8293;SDS011;4185;41.506;24.938;2022-08-01T04:03:52;10.77;;;9.67;;
8293;SDS011;4185;41.506;24.938;2022-08-01T04:06:20;11.47;;;10.17;;
8293;SDS011;4185;41.506;24.938;2022-08-01T04:08:47;11.70;;;9.47;;
8293;SDS011;4185;41.506;24.938;2022-08-01T04:11:23;14.00;;;10.60;;
8293;SDS011;4185;41.506;24.938;2022-08-01T04:13:51;12.23;;;9.83;;
8293;SDS011;4185;41.506;24.938;2022-08-01T04:16:19;11.60;;;9.40;;
8293;SDS011;4185;41.506;24.938;2022-08-01T04:18:46;11.67;;;9.73;;
8293;SDS011;4185;41.506;24.938;2022-08-01T04:21:13;10.43;;;9.33;;
8293;SDS011;4185;41.506;24.938;2022-08-01T04:23:42;10.63;;;8.77;;
8293;SDS011;4185;41.506;24.938;2022-08-01T04:26:12;10.93;;;9.83;;
8293;SDS011;4185;41.506;24.938;2022-08-01T04:28:43;12.20;;;10.23;;
8293;SDS011;4185;41.506;24.938;2022-08-01T04:31:12;10.43;;;9.33;;
8293;SDS011;4185;41.506;24.938;2022-08-01T04:33:43;12.20;;;8.70;;
8293;SDS011;4185;41.506;24.938;2022-08-01T04:36:14;9.93;;;8.93;;
8293;SDS011;4185;41.506;24.938;2022-08-01T04:38:46;11.03;;;9.27;;
8293;SDS011;4185;41.506;24.938;2022-08-01T04:41:16;11.47;;;9.53;;
8293;SDS011;4185;41.506;24.938;2022-08-01T04:43:46;10.87;;;9.23;;
8293;SDS011;4185;41.506;24.938;2022-08-01T04:46:13;11.20;;;9.63;;
8293;SDS011;4185;41.506;24.938;2022-08-01T04:48:42;10.57;;;9.30;;
8293;SDS011;4185;41.506;24.938;2022-08-01T04:51:13;9.80;;;8.80;;
8293;SDS011;4185;41.506;24.938;2022-08-01T04:53:41;10.47;;;9.13;;
8293;SDS011;4185;41.506;24.938;2022-08-01T04:56:08;10.27;;;8.97;;
8293;SDS011;4185;41.506;24.938;2022-08-01T04:58:38;10.93;;;9.53;;
8293;SDS011;4185;41.506;24.938;2022-08-01T05:01:06;10.73;;;9.43;;
8293;SDS011;4185;41.506;24.938;2022-08-01T05:03:33;12.87;;;10.17;;
8293;SDS011;4185;41.506;24.938;2022-08-01T05:06:00;10.80;;;9.53;;
8293;SDS011;4185;41.506;24.938;2022-08-01T05:08:27;11.17;;;9.70;;
8293;SDS011;4185;41.506;24.938;2022-08-01T05:10:54;10.70;;;9.30;;
8293;SDS011;4185;41.506;24.938;2022-08-01T05:13:21;10.83;;;9.73;;
8293;SDS011;4185;41.506;24.938;2022-08-01T05:15:47;11.23;;;10.07;;
8293;SDS011;4185;41.506;24.938;2022-08-01T05:18:16;11.67;;;9.87;;
8293;SDS011;4185;41.506;24.938;2022-08-01T05:20:42;11.53;;;10.33;;
8293;SDS011;4185;41.506;24.938;2022-08-01T05:23:09;13.40;;;10.30;;
8293;SDS011;4185;41.506;24.938;2022-08-01T05:25:37;11.73;;;10.53;;
8293;SDS011;4185;41.506;24.938;2022-08-01T05:28:04;11.13;;;9.90;;
8293;SDS011;4185;41.506;24.938;2022-08-01T05:30:31;11.17;;;9.93;;
8293;SDS011;4185;41.506;24.938;2022-08-01T05:32:58;11.13;;;9.83;;
8293;SDS011;4185;41.506;24.938;2022-08-01T05:35:26;10.73;;;9.27;;
8293;SDS011;4185;41.506;24.938;2022-08-01T05:37:53;10.60;;;9.60;;
8293;SDS011;4185;41.506;24.938;2022-08-01T05:40:20;10.97;;;9.87;;
8293;SDS011;4185;41.506;24.938;2022-08-01T05:42:46;10.57;;;9.33;;
8293;SDS011;4185;41.506;24.938;2022-08-01T05:45:13;9.83;;;8.93;;
8293;SDS011;4185;41.506;24.938;2022-08-01T05:47:40;10.77;;;9.67;;
8293;SDS011;4185;41.506;24.938;2022-08-01T05:50:07;9.47;;;8.57;;
8293;SDS011;4185;41.506;24.938;2022-08-01T05:52:36;10.00;;;8.53;;
8293;SDS011;4185;41.506;24.938;2022-08-01T05:55:03;8.47;;;7.67;;
8293;SDS011;4185;41.506;24.938;2022-08-01T05:57:31;8.80;;;7.90;;
8293;SDS011;4185;41.506;24.938;2022-08-01T05:59:58;8.30;;;7.50;;
8293;SDS011;4185;41.506;24.938;2022-08-01T06:02:25;8.20;;;7.40;;
8293;SDS011;4185;41.506;24.938;2022-08-01T06:04:52;8.63;;;7.67;;
8293;SDS011;4185;41.506;24.938;2022-08-01T06:07:19;8.30;;;7.50;;
8293;SDS011;4185;41.506;24.938;2022-08-01T06:09:47;9.37;;;8.13;;
8293;SDS011;4185;41.506;24.938;2022-08-01T06:12:14;7.90;;;7.20;;
8293;SDS011;4185;41.506;24.938;2022-08-01T06:14:41;8.27;;;7.47;;
8293;SDS011;4185;41.506;24.938;2022-08-01T06:17:08;7.73;;;6.57;;
8293;SDS011;4185;41.506;24.938;2022-08-01T06:19:34;6.93;;;6.33;;
8293;SDS011;4185;41.506;24.938;2022-08-01T06:22:01;8.63;;;7.33;;
8293;SDS011;4185;41.506;24.938;2022-08-01T06:24:28;8.83;;;6.80;;
8293;SDS011;4185;41.506;24.938;2022-08-01T06:26:56;7.67;;;6.97;;
8293;SDS011;4185;41.506;24.938;2022-08-01T06:29:23;6.83;;;6.23;;
8293;SDS011;4185;41.506;24.938;2022-08-01T06:31:50;5.67;;;5.17;;
8293;SDS011;4185;41.506;24.938;2022-08-01T06:34:17;6.27;;;5.67;;
8293;SDS011;4185;41.506;24.938;2022-08-01T06:36:43;7.30;;;6.60;;
8293;SDS011;4185;41.506;24.938;2022-08-01T06:39:10;6.10;;;5.50;;
8293;SDS011;4185;41.506;24.938;2022-08-01T06:41:37;7.00;;;5.50;;
8293;SDS011;4185;41.506;24.938;2022-08-01T06:44:07;6.10;;;5.17;;
8293;SDS011;4185;41.506;24.938;2022-08-01T06:46:34;6.13;;;5.30;;
8293;SDS011;4185;41.506;24.938;2022-08-01T06:49:01;5.63;;;5.03;;
8293;SDS011;4185;41.506;24.938;2022-08-01T06:51:28;5.80;;;5.30;;
8293;SDS011;4185;41.506;24.938;2022-08-01T06:53:55;7.10;;;4.80;;
8293;SDS011;4185;41.506;24.938;2022-08-01T06:56:22;5.37;;;4.60;;
8293;SDS011;4185;41.506;24.938;2022-08-01T06:58:48;4.73;;;4.07;;
8293;SDS011;4185;41.506;24.938;2022-08-01T07:01:17;5.57;;;5.00;;
8293;SDS011;4185;41.506;24.938;2022-08-01T07:03:44;5.87;;;4.83;;
8293;SDS011;4185;41.506;24.938;2022-08-01T07:06:11;5.17;;;4.67;;
8293;SDS011;4185;41.506;24.938;2022-08-01T07:08:37;5.53;;;5.03;;
8293;SDS011;4185;41.506;24.938;2022-08-01T07:11:04;5.27;;;4.80;;
8293;SDS011;4185;41.506;24.938;2022-08-01T07:13:31;6.33;;;4.17;;
8293;SDS011;4185;41.506;24.938;2022-08-01T07:15:58;5.70;;;3.83;;
8293;SDS011;4185;41.506;24.938;2022-08-01T07:18:26;4.83;;;4.00;;
8293;SDS011;4185;41.506;24.938;2022-08-01T07:20:53;3.87;;;3.57;;
8293;SDS011;4185;41.506;24.938;2022-08-01T07:23:20;4.50;;;4.10;;
8293;SDS011;4185;41.506;24.938;2022-08-01T07:25:47;3.23;;;3.03;;
8293;SDS011;4185;41.506;24.938;2022-08-01T07:28:16;3.67;;;3.37;;
8293;SDS011;4185;41.506;24.938;2022-08-01T07:30:42;4.90;;;3.80;;
8293;SDS011;4185;41.506;24.938;2022-08-01T07:33:09;4.13;;;3.83;;
8293;SDS011;4185;41.506;24.938;2022-08-01T07:35:38;3.60;;;3.30;;
8293;SDS011;4185;41.506;24.938;2022-08-01T07:38:05;4.03;;;3.37;;
8293;SDS011;4185;41.506;24.938;2022-08-01T07:40:32;3.70;;;3.40;;
8293;SDS011;4185;41.506;24.938;2022-08-01T07:42:59;3.93;;;3.53;;
8293;SDS011;4185;41.506;24.938;2022-08-01T07:45:26;3.20;;;2.90;;
8293;SDS011;4185;41.506;24.938;2022-08-01T07:47:53;4.00;;;3.17;;
8293;SDS011;4185;41.506;24.938;2022-08-01T07:50:20;3.80;;;3.40;;
8293;SDS011;4185;41.506;24.938;2022-08-01T07:52:48;3.83;;;3.23;;
8293;SDS011;4185;41.506;24.938;2022-08-01T07:55:15;3.63;;;3.37;;
8293;SDS011;4185;41.506;24.938;2022-08-01T07:57:41;3.63;;;3.33;;
8293;SDS011;4185;41.506;24.938;2022-08-01T08:00:08;3.00;;;2.80;;
8293;SDS011;4185;41.506;24.938;2022-08-01T08:02:36;3.30;;;3.00;;
8293;SDS011;4185;41.506;24.938;2022-08-01T08:05:03;5.27;;;3.03;;
8293;SDS011;4185;41.506;24.938;2022-08-01T08:07:31;3.13;;;2.87;;
8293;SDS011;4185;41.506;24.938;2022-08-01T08:09:59;4.07;;;2.80;;
8293;SDS011;4185;41.506;24.938;2022-08-01T08:12:26;3.47;;;2.90;;
8293;SDS011;4185;41.506;24.938;2022-08-01T08:14:54;3.30;;;3.00;;
8293;SDS011;4185;41.506;24.938;2022-08-01T08:17:20;2.80;;;2.60;;
8293;SDS011;4185;41.506;24.938;2022-08-01T08:19:47;3.50;;;2.83;;
8293;SDS011;4185;41.506;24.938;2022-08-01T08:22:14;3.23;;;2.83;;
8293;SDS011;4185;41.506;24.938;2022-08-01T08:24:41;2.80;;;2.60;;
8293;SDS011;4185;41.506;24.938;2022-08-01T08:27:09;3.30;;;3.00;;
8293;SDS011;4185;41.506;24.938;2022-08-01T08:29:36;3.20;;;3.00;;
8293;SDS011;4185;41.506;24.938;2022-08-01T08:32:03;3.17;;;2.87;;
8293;SDS011;4185;41.506;24.938;2022-08-01T08:34:30;2.77;;;2.57;;
8293;SDS011;4185;41.506;24.938;2022-08-01T08:36:57;2.80;;;2.60;;
8293;SDS011;4185;41.506;24.938;2022-08-01T08:39:25;2.87;;;2.67;;
8293;SDS011;4185;41.506;24.938;2022-08-01T08:41:54;2.87;;;2.67;;
8293;SDS011;4185;41.506;24.938;2022-08-01T08:44:24;2.43;;;2.10;;
8293;SDS011;4185;41.506;24.938;2022-08-01T08:46:51;5.03;;;2.90;;
8293;SDS011;4185;41.506;24.938;2022-08-01T08:49:21;3.20;;;2.53;;
8293;SDS011;4185;41.506;24.938;2022-08-01T08:51:51;2.93;;;2.73;;
8293;SDS011;4185;41.506;24.938;2022-08-01T08:54:19;2.73;;;2.47;;
8293;SDS011;4185;41.506;24.938;2022-08-01T08:56:49;2.70;;;2.50;;
8293;SDS011;4185;41.506;24.938;2022-08-01T08:59:17;2.63;;;2.43;;
8293;SDS011;4185;41.506;24.938;2022-08-01T09:01:47;3.40;;;2.70;;
8293;SDS011;4185;41.506;24.938;2022-08-01T09:04:14;3.63;;;2.33;;
8293;SDS011;4185;41.506;24.938;2022-08-01T09:06:41;2.90;;;2.60;;
8293;SDS011;4185;41.506;24.938;2022-08-01T09:09:08;2.93;;;2.70;;
8293;SDS011;4185;41.506;24.938;2022-08-01T09:11:36;3.23;;;2.50;;
8293;SDS011;4185;41.506;24.938;2022-08-01T09:14:05;2.70;;;2.50;;
8293;SDS011;4185;41.506;24.938;2022-08-01T09:16:34;3.60;;;2.47;;
8293;SDS011;4185;41.506;24.938;2022-08-01T09:19:10;2.77;;;2.57;;
8293;SDS011;4185;41.506;24.938;2022-08-01T09:21:38;2.90;;;2.60;;
8293;SDS011;4185;41.506;24.938;2022-08-01T09:24:13;2.57;;;2.37;;
8293;SDS011;4185;41.506;24.938;2022-08-01T09:26:42;2.93;;;2.50;;
8293;SDS011;4185;41.506;24.938;2022-08-01T09:29:17;2.40;;;2.20;;
8293;SDS011;4185;41.506;24.938;2022-08-01T09:31:45;2.83;;;2.63;;
8293;SDS011;4185;41.506;24.938;2022-08-01T09:34:14;3.47;;;2.67;;
8293;SDS011;4185;41.506;24.938;2022-08-01T09:36:46;2.60;;;2.40;;
8293;SDS011;4185;41.506;24.938;2022-08-01T09:39:16;2.57;;;2.37;;
8293;SDS011;4185;41.506;24.938;2022-08-01T09:41:45;3.23;;;2.80;;
8293;SDS011;4185;41.506;24.938;2022-08-01T09:44:12;2.57;;;2.37;;
8293;SDS011;4185;41.506;24.938;2022-08-01T09:46:48;2.85;;;2.65;;
8293;SDS011;4185;41.506;24.938;2022-08-01T09:49:27;2.70;;;2.50;;
8293;SDS011;4185;41.506;24.938;2022-08-01T09:51:55;3.05;;;2.58;;
8293;SDS011;4185;41.506;24.938;2022-08-01T09:54:30;2.63;;;2.40;;
8293;SDS011;4185;41.506;24.938;2022-08-01T09:57:07;2.97;;;2.60;;
8293;SDS011;4185;41.506;24.938;2022-08-01T09:59:39;3.53;;;2.53;;
8293;SDS011;4185;41.506;24.938;2022-08-01T10:02:09;2.97;;;2.50;;
8293;SDS011;4185;41.506;24.938;2022-08-01T10:04:46;2.70;;;2.50;;
8293;SDS011;4185;41.506;24.938;2022-08-01T10:07:14;2.60;;;2.40;;
8293;SDS011;4185;41.506;24.938;2022-08-01T10:09:42;2.80;;;2.60;;
8293;SDS011;4185;41.506;24.938;2022-08-01T10:12:09;2.50;;;2.30;;
8293;SDS011;4185;41.506;24.938;2022-08-01T10:14:38;2.50;;;2.30;;
8293;SDS011;4185;41.506;24.938;2022-08-01T10:17:07;2.65;;;2.45;;
8293;SDS011;4185;41.506;24.938;2022-08-01T10:19:35;4.35;;;2.30;;
8293;SDS011;4185;41.506;24.938;2022-08-01T10:22:07;3.03;;;2.72;;
8293;SDS011;4185;41.506;24.938;2022-08-01T10:24:35;3.05;;;2.72;;
8293;SDS011;4185;41.506;24.938;2022-08-01T10:27:06;2.60;;;2.40;;
8293;SDS011;4185;41.506;24.938;2022-08-01T10:29:36;3.17;;;2.58;;
8293;SDS011;4185;41.506;24.938;2022-08-01T10:32:07;2.70;;;2.50;;
8293;SDS011;4185;41.506;24.938;2022-08-01T10:34:35;3.10;;;2.60;;
8293;SDS011;4185;41.506;24.938;2022-08-01T10:37:03;2.47;;;2.28;;
8293;SDS011;4185;41.506;24.938;2022-08-01T10:39:32;2.58;;;2.38;;
8293;SDS011;4185;41.506;24.938;2022-08-01T10:42:01;2.80;;;2.55;;
8293;SDS011;4185;41.506;24.938;2022-08-01T10:44:29;2.45;;;2.25;;
8293;SDS011;4185;41.506;24.938;2022-08-01T10:46:59;2.83;;;2.63;;
8293;SDS011;4185;41.506;24.938;2022-08-01T10:49:30;2.63;;;2.22;;
8293;SDS011;4185;41.506;24.938;2022-08-01T10:52:01;2.60;;;2.40;;
8293;SDS011;4185;41.506;24.938;2022-08-01T10:54:30;2.70;;;2.30;;
8293;SDS011;4185;41.506;24.938;2022-08-01T10:57:05;2.40;;;2.20;;
8293;SDS011;4185;41.506;24.938;2022-08-01T10:59:32;3.03;;;2.38;;
8293;SDS011;4185;41.506;24.938;2022-08-01T11:02:01;2.47;;;2.25;;
8293;SDS011;4185;41.506;24.938;2022-08-01T11:04:32;2.40;;;2.20;;
8293;SDS011;4185;41.506;24.938;2022-08-01T11:07:07;2.45;;;2.35;;
8293;SDS011;4185;41.506;24.938;2022-08-01T11:09:40;2.90;;;2.67;;
8293;SDS011;4185;41.506;24.938;2022-08-01T11:12:08;2.35;;;2.15;;
8293;SDS011;4185;41.506;24.938;2022-08-01T11:17:42;2.70;;;2.50;;
8293;SDS011;4185;41.506;24.938;2022-08-01T11:20:13;2.50;;;2.30;;
8293;SDS011;4185;41.506;24.938;2022-08-01T11:26:10;2.90;;;2.67;;
8293;SDS011;4185;41.506;24.938;2022-08-01T11:28:39;2.28;;;2.15;;
8293;SDS011;4185;41.506;24.938;2022-08-01T11:31:30;2.58;;;2.38;;
8293;SDS011;4185;41.506;24.938;2022-08-01T11:33:58;4.28;;;2.22;;
8293;SDS011;4185;41.506;24.938;2022-08-01T11:36:26;2.47;;;2.28;;
8293;SDS011;4185;41.506;24.938;2022-08-01T11:41:42;2.30;;;2.10;;
8293;SDS011;4185;41.506;24.938;2022-08-01T11:44:11;2.67;;;2.47;;
8293;SDS011;4185;41.506;24.938;2022-08-01T11:46:49;2.40;;;2.20;;
8293;SDS011;4185;41.506;24.938;2022-08-01T11:49:22;2.50;;;2.30;;
8293;SDS011;4185;41.506;24.938;2022-08-01T11:52:03;2.97;;;2.30;;
8293;SDS011;4185;41.506;24.938;2022-08-01T11:54:32;2.40;;;2.20;;
8293;SDS011;4185;41.506;24.938;2022-08-01T11:57:02;2.70;;;2.50;;
8293;SDS011;4185;41.506;24.938;2022-08-01T11:59:35;2.58;;;2.38;;
8293;SDS011;4185;41.506;24.938;2022-08-01T12:02:03;2.17;;;2.00;;
8293;SDS011;4185;41.506;24.938;2022-08-01T12:04:44;2.65;;;2.28;;
8293;SDS011;4185;41.506;24.938;2022-08-01T12:07:16;2.35;;;2.15;;
8293;SDS011;4185;41.506;24.938;2022-08-01T12:09:44;2.72;;;2.53;;
8293;SDS011;4185;41.506;24.938;2022-08-01T12:12:16;3.10;;;2.40;;
8293;SDS011;4185;41.506;24.938;2022-08-01T12:14:44;2.15;;;2.05;;
8293;SDS011;4185;41.506;24.938;2022-08-01T12:17:20;3.03;;;2.60;;
8293;SDS011;4185;41.506;24.938;2022-08-01T12:19:53;3.05;;;2.55;;
8293;SDS011;4185;41.506;24.938;2022-08-01T12:22:21;2.60;;;2.40;;
8293;SDS011;4185;41.506;24.938;2022-08-01T12:24:50;2.60;;;2.40;;
8293;SDS011;4185;41.506;24.938;2022-08-01T12:27:24;3.55;;;2.47;;
8293;SDS011;4185;41.506;24.938;2022-08-01T12:29:53;2.85;;;2.47;;
8293;SDS011;4185;41.506;24.938;2022-08-01T12:32:21;2.70;;;2.50;;
8293;SDS011;4185;41.506;24.938;2022-08-01T12:34:50;2.42;;;2.22;;
8293;SDS011;4185;41.506;24.938;2022-08-01T12:37:18;3.03;;;2.40;;
8293;SDS011;4185;41.506;24.938;2022-08-01T12:39:45;2.80;;;2.55;;
8293;SDS011;4185;41.506;24.938;2022-08-01T12:42:13;2.72;;;2.53;;
8293;SDS011;4185;41.506;24.938;2022-08-01T12:44:41;3.45;;;2.40;;
8293;SDS011;4185;41.506;24.938;2022-08-01T12:47:10;2.58;;;2.38;;
8293;SDS011;4185;41.506;24.938;2022-08-01T12:49:38;2.95;;;2.70;;
8293;SDS011;4185;41.506;24.938;2022-08-01T12:52:08;2.70;;;2.50;;
8293;SDS011;4185;41.506;24.938;2022-08-01T12:57:27;4.13;;;2.97;;
8293;SDS011;4185;41.506;24.938;2022-08-01T13:00:05;3.65;;;3.05;;
8293;SDS011;4185;41.506;24.938;2022-08-01T13:02:48;3.00;;;2.80;;
8293;SDS011;4185;41.506;24.938;2022-08-01T13:05:16;3.65;;;3.35;;
8293;SDS011;4185;41.506;24.938;2022-08-01T13:07:45;3.22;;;3.00;;
8293;SDS011;4185;41.506;24.938;2022-08-01T13:10:14;3.95;;;3.00;;
8293;SDS011;4185;41.506;24.938;2022-08-01T13:12:51;3.90;;;2.90;;
8293;SDS011;4185;41.506;24.938;2022-08-01T13:15:25;3.15;;;2.92;;
8293;SDS011;4185;41.506;24.938;2022-08-01T13:18:00;3.30;;;3.10;;
8293;SDS011;4185;41.506;24.938;2022-08-01T13:20:47;3.22;;;2.92;;
8293;SDS011;4185;41.506;24.938;2022-08-01T13:23:15;3.22;;;3.03;;
8293;SDS011;4185;41.506;24.938;2022-08-01T13:25:50;3.60;;;2.60;;
8293;SDS011;4185;41.506;24.938;2022-08-01T13:28:20;2.95;;;2.75;;
8293;SDS011;4185;41.506;24.938;2022-08-01T13:30:59;3.50;;;3.20;;
8293;SDS011;4185;41.506;24.938;2022-08-01T13:33:27;3.55;;;3.10;;
8293;SDS011;4185;41.506;24.938;2022-08-01T13:36:05;3.22;;;2.92;;
8293;SDS011;4185;41.506;24.938;2022-08-01T13:38:32;3.33;;;3.13;;
8293;SDS011;4185;41.506;24.938;2022-08-01T13:41:16;2.88;;;2.67;;
8293;SDS011;4185;41.506;24.938;2022-08-01T13:43:43;3.45;;;3.15;;
8293;SDS011;4185;41.506;24.938;2022-08-01T13:46:11;4.30;;;3.50;;
8293;SDS011;4185;41.506;24.938;2022-08-01T13:48:38;3.17;;;2.97;;
8293;SDS011;4185;41.506;24.938;2022-08-01T13:51:05;3.00;;;2.80;;
8293;SDS011;4185;41.506;24.938;2022-08-01T13:53:32;3.33;;;3.05;;
8293;SDS011;4185;41.506;24.938;2022-08-01T13:55:59;3.35;;;3.05;;
8293;SDS011;4185;41.506;24.938;2022-08-01T13:58:26;3.03;;;2.83;;
8293;SDS011;4185;41.506;24.938;2022-08-01T14:00:53;3.40;;;3.10;;
8293;SDS011;4185;41.506;24.938;2022-08-01T14:03:22;3.15;;;2.90;;
8293;SDS011;4185;41.506;24.938;2022-08-01T14:05:48;3.13;;;2.83;;
8293;SDS011;4185;41.506;24.938;2022-08-01T14:08:15;2.65;;;2.45;;
8293;SDS011;4185;41.506;24.938;2022-08-01T14:10:42;3.65;;;3.08;;
8293;SDS011;4185;41.506;24.938;2022-08-01T14:13:09;3.00;;;2.67;;
8293;SDS011;4185;41.506;24.938;2022-08-01T14:15:36;3.08;;;2.88;;
8293;SDS011;4185;41.506;24.938;2022-08-01T14:18:03;3.15;;;2.83;;
8293;SDS011;4185;41.506;24.938;2022-08-01T14:20:32;2.95;;;2.60;;
8293;SDS011;4185;41.506;24.938;2022-08-01T14:22:59;3.30;;;3.03;;
8293;SDS011;4185;41.506;24.938;2022-08-01T14:25:25;3.55;;;2.80;;
8293;SDS011;4185;41.506;24.938;2022-08-01T14:27:52;3.10;;;2.80;;
8293;SDS011;4185;41.506;24.938;2022-08-01T14:30:19;3.60;;;3.00;;
8293;SDS011;4185;41.506;24.938;2022-08-01T14:32:46;4.20;;;2.70;;
8293;SDS011;4185;41.506;24.938;2022-08-01T14:35:13;3.00;;;2.80;;
8293;SDS011;4185;41.506;24.938;2022-08-01T14:37:41;2.97;;;2.78;;
8293;SDS011;4185;41.506;24.938;2022-08-01T14:40:08;4.05;;;2.90;;
8293;SDS011;4185;41.506;24.938;2022-08-01T14:42:35;2.70;;;2.50;;
8293;SDS011;4185;41.506;24.938;2022-08-01T14:45:03;4.40;;;2.33;;
8293;SDS011;4185;41.506;24.938;2022-08-01T14:47:34;2.60;;;2.40;;
8293;SDS011;4185;41.506;24.938;2022-08-01T14:50:01;4.13;;;2.40;;
8293;SDS011;4185;41.506;24.938;2022-08-01T14:52:29;2.42;;;2.10;;
8293;SDS011;4185;41.506;24.938;2022-08-01T14:54:57;4.43;;;2.58;;
8293;SDS011;4185;41.506;24.938;2022-08-01T14:57:24;3.50;;;2.20;;
8293;SDS011;4185;41.506;24.938;2022-08-01T14:59:51;4.03;;;2.47;;
8293;SDS011;4185;41.506;24.938;2022-08-01T15:02:17;2.40;;;2.20;;
8293;SDS011;4185;41.506;24.938;2022-08-01T15:04:44;2.78;;;2.47;;
8293;SDS011;4185;41.506;24.938;2022-08-01T15:07:12;3.20;;;2.35;;
8293;SDS011;4185;41.506;24.938;2022-08-01T15:09:39;3.10;;;2.50;;
8293;SDS011;4185;41.506;24.938;2022-08-01T15:12:08;2.50;;;2.30;;
8293;SDS011;4185;41.506;24.938;2022-08-01T15:14:35;2.58;;;2.38;;
8293;SDS011;4185;41.506;24.938;2022-08-01T15:17:14;2.90;;;2.60;;
8293;SDS011;4185;41.506;24.938;2022-08-01T15:19:42;3.55;;;2.60;;